Time;durP1;ratioP1;P1;durP2;ratioP2;P2;SDS_P1;SDS_P2;PMS_P1;PMS_P2;Temp;Humidity;BMP_temperature;BMP_pressure;BME280_temperature;BME280_humidity;BME280_pressure;Samples;Min_cycle;Max_cycle;Signal;HPM_P1;HPM_P2
2022/05/05 00:01:41;;;;;;;;;;;6.60;99.90;;;;;;5013218;28;19928;-87
2022/05/05 00:04:07;;;;;;;;;;;6.60;99.90;;;;;;5033397;28;20365;-86
2022/05/05 00:06:33;;;;;;;;;;;6.60;99.90;;;;;;5030033;28;19925;-86
2022/05/05 00:08:59;;;;;;;;;;;6.60;99.90;;;;;;5018038;28;20390;-82
2022/05/05 00:14:24;;;;;;;;;;;6.60;99.90;;;;;;5009263;28;19929;-86
2022/05/05 00:16:51;;;;;;;;;;;6.60;99.90;;;;;;5016910;28;20381;-86
2022/05/05 00:19:17;;;;;;;;;;;6.60;99.90;;;;;;5014743;28;20012;-87
2022/05/05 00:21:42;;;;;;;;;;;6.60;99.90;;;;;;5035863;28;20000;-86
2022/05/05 00:24:08;;;;;;;;;;;6.60;99.90;;;;;;5019970;28;19928;-85
2022/05/05 00:26:34;;;;;;;;;;;6.60;99.90;;;;;;5014639;28;19965;-84
2022/05/05 00:28:59;;;;;;;;;;;6.60;99.90;;;;;;5018067;28;19974;-85
2022/05/05 00:31:25;;;;;;;;;;;6.60;99.90;;;;;;5017041;28;20378;-84
2022/05/05 00:33:52;;;;;;;;;;;6.60;99.90;;;;;;5020246;28;20310;-84
2022/05/05 00:36:18;;;;;;;;;;;6.60;99.90;;;;;;5035544;28;20032;-83
2022/05/05 00:38:44;;;;;;;;;;;6.60;99.90;;;;;;5017639;28;19939;-83
2022/05/05 00:41:10;;;;;;;;;;;6.60;99.90;;;;;;5016644;28;20379;-85
2022/05/05 00:43:35;;;;;;;;;;;6.60;99.90;;;;;;5016851;28;19928;-84
2022/05/05 00:46:01;;;;;;;;;;;6.60;99.90;;;;;;5015592;28;19931;-85
2022/05/05 00:48:27;;;;;;;;;;;6.70;99.90;;;;;;5016795;28;19951;-82
2022/05/05 00:50:55;;;;;;;;;;;6.70;99.90;;;;;;5032345;28;20330;-82
2022/05/05 00:53:21;;;;;;;;;;;6.70;99.90;;;;;;5010581;28;19929;-82
2022/05/05 00:55:48;;;;;;;;;;;6.70;99.90;;;;;;5015355;28;19931;-82
2022/05/05 00:58:14;;;;;;;;;;;6.70;99.90;;;;;;5005531;28;20005;-82
2022/05/05 01:00:40;;;;;;;;;;;6.70;99.90;;;;;;5016173;28;20314;-82
2022/05/05 01:03:07;;;;;;;;;;;6.70;99.90;;;;;;5015843;28;19943;-82
2022/05/05 01:05:34;;;;;;;;;;;6.70;99.90;;;;;;5015410;28;19928;-82
2022/05/05 01:08:01;;;;;;;;;;;6.70;99.90;;;;;;5015807;28;19921;-82
2022/05/05 01:10:27;;;;;;;;;;;6.70;99.90;;;;;;5032888;28;20271;-83
2022/05/05 01:12:53;;;;;;;;;;;6.70;99.90;;;;;;5032549;28;19936;-82
2022/05/05 01:15:19;;;;;;;;;;;6.70;99.90;;;;;;5013104;28;19929;-82
2022/05/05 01:17:44;;;;;;;;;;;6.80;99.90;;;;;;5015074;28;19921;-82
2022/05/05 01:20:11;;;;;;;;;;;6.80;99.90;;;;;;5032186;28;19939;-82
2022/05/05 01:22:38;;;;;;;;;;;6.80;99.90;;;;;;5027728;28;19921;-82
2022/05/05 01:30:33;;;;;;;;;;;6.70;99.90;;;;;;5034530;28;20276;-82
2022/05/05 01:32:58;;;;;;;;;;;6.70;99.90;;;;;;5027555;28;19928;-82
2022/05/05 01:35:24;;;;;;;;;;;6.80;99.90;;;;;;5036862;28;19925;-83
2022/05/05 01:37:51;;;;;;;;;;;6.70;99.90;;;;;;5017339;28;19931;-82
2022/05/05 01:40:16;;;;;;;;;;;6.70;99.90;;;;;;5033809;28;19924;-82
2022/05/05 01:42:42;;;;;;;;;;;6.70;99.90;;;;;;5035037;28;19947;-83
2022/05/05 01:45:08;;;;;;;;;;;6.70;99.90;;;;;;5009025;28;19932;-82
2022/05/05 01:47:34;;;;;;;;;;;6.70;99.90;;;;;;5018690;28;19921;-82
2022/05/05 01:50:00;;;;;;;;;;;6.70;99.90;;;;;;5017280;28;19921;-82
2022/05/05 01:52:27;;;;;;;;;;;6.60;99.90;;;;;;5023794;28;20043;-82
2022/05/05 01:54:53;;;;;;;;;;;6.70;99.90;;;;;;5029973;28;19929;-82
2022/05/05 01:57:19;;;;;;;;;;;6.70;99.90;;;;;;5016772;28;19925;-82
2022/05/05 01:59:45;;;;;;;;;;;6.70;99.90;;;;;;5019097;28;19931;-83
2022/05/05 02:02:12;;;;;;;;;;;6.60;99.90;;;;;;5032155;28;19927;-83
2022/05/05 02:04:38;;;;;;;;;;;6.60;99.90;;;;;;5032932;28;19921;-83
2022/05/05 02:07:04;;;;;;;;;;;6.60;99.90;;;;;;5017881;28;19974;-82
2022/05/05 02:09:30;;;;;;;;;;;6.50;99.90;;;;;;5015821;28;19928;-82
2022/05/05 02:11:57;;;;;;;;;;;6.60;99.90;;;;;;5015080;28;19921;-82
2022/05/05 02:14:23;;;;;;;;;;;6.50;99.90;;;;;;5016932;28;19964;-83
2022/05/05 02:16:49;;;;;;;;;;;6.50;99.90;;;;;;5015054;28;20375;-82
2022/05/05 02:19:14;;;;;;;;;;;6.40;99.90;;;;;;5022605;28;19927;-84
2022/05/05 02:21:40;;;;;;;;;;;6.40;99.90;;;;;;5033802;28;19925;-83
2022/05/05 02:24:06;;;;;;;;;;;6.40;99.90;;;;;;5018145;28;20012;-85
2022/05/05 02:26:31;;;;;;;;;;;6.40;99.90;;;;;;5033133;28;19932;-85
2022/05/05 02:28:58;;;;;;;;;;;6.30;99.90;;;;;;5033410;28;19921;-86
2022/05/05 02:31:24;;;;;;;;;;;6.30;99.90;;;;;;5016274;28;20472;-86
2022/05/05 02:33:50;;;;;;;;;;;6.30;99.90;;;;;;5016495;28;19979;-82
2022/05/05 02:39:00;;;;;;;;;;;6.30;99.90;;;;;;5033084;28;20438;-85
2022/05/05 02:41:25;;;;;;;;;;;6.20;99.90;;;;;;5012455;28;20011;-84
2022/05/05 02:43:52;;;;;;;;;;;6.20;99.90;;;;;;5017050;28;20302;-83
2022/05/05 02:46:19;;;;;;;;;;;6.20;99.90;;;;;;5016504;28;19921;-83
2022/05/05 02:48:45;;;;;;;;;;;6.20;99.90;;;;;;5016709;28;19979;-82
2022/05/05 02:51:11;;;;;;;;;;;6.20;99.90;;;;;;5040075;28;20387;-82
2022/05/05 02:56:20;;;;;;;;;;;6.10;99.90;;;;;;5033278;28;19925;-82
2022/05/05 02:58:46;;;;;;;;;;;6.30;99.90;;;;;;5033003;28;20289;-87
2022/05/05 03:01:12;;;;;;;;;;;6.20;99.90;;;;;;5017720;28;20429;-86
2022/05/05 03:03:39;;;;;;;;;;;6.10;99.90;;;;;;5031731;28;19932;-86
2022/05/05 03:06:04;;;;;;;;;;;6.20;99.90;;;;;;5032942;28;19924;-87
2022/05/05 03:08:30;;;;;;;;;;;6.20;99.90;;;;;;5013427;28;20024;-82
2022/05/05 03:10:55;;;;;;;;;;;6.20;99.90;;;;;;5071109;23;19924;-73
2022/05/05 03:13:21;;;;;;;;;;;6.20;99.90;;;;;;5055424;28;19936;-73
2022/05/05 03:15:46;;;;;;;;;;;6.10;99.90;;;;;;5053887;28;20405;-74
2022/05/05 03:18:12;;;;;;;;;;;6.20;99.90;;;;;;5049649;28;19927;-73
2022/05/05 03:20:39;;;;;;;;;;;6.20;99.90;;;;;;5071177;28;20402;-73
2022/05/05 03:23:04;;;;;;;;;;;6.20;99.90;;;;;;5071967;28;19932;-73
2022/05/05 03:25:30;;;;;;;;;;;6.20;99.90;;;;;;5056421;28;19920;-73
2022/05/05 03:27:56;;;;;;;;;;;6.20;99.90;;;;;;5055596;28;20335;-74
2022/05/05 03:30:22;;;;;;;;;;;6.20;99.90;;;;;;5056241;28;20384;-74
2022/05/05 03:32:48;;;;;;;;;;;6.20;99.90;;;;;;5057054;28;19920;-73
2022/05/05 03:35:14;;;;;;;;;;;6.20;99.90;;;;;;5044879;28;19956;-74
2022/05/05 03:37:40;;;;;;;;;;;6.20;99.90;;;;;;5057049;28;19968;-74
2022/05/05 03:40:06;;;;;;;;;;;6.20;99.90;;;;;;5072214;28;19931;-74
2022/05/05 03:42:32;;;;;;;;;;;6.30;99.90;;;;;;5073645;28;20386;-73
2022/05/05 03:44:58;;;;;;;;;;;6.30;99.90;;;;;;5072726;28;19920;-74
2022/05/05 03:47:23;;;;;;;;;;;6.30;99.90;;;;;;5048739;28;20394;-74
2022/05/05 03:49:49;;;;;;;;;;;6.30;99.90;;;;;;5056003;28;19973;-74
2022/05/05 03:52:14;;;;;;;;;;;6.30;99.90;;;;;;5055270;28;19921;-73
2022/05/05 03:54:41;;;;;;;;;;;6.30;99.90;;;;;;5072349;28;20020;-74
2022/05/05 03:57:08;;;;;;;;;;;6.30;99.90;;;;;;5072320;28;20287;-73
2022/05/05 03:59:34;;;;;;;;;;;6.30;99.90;;;;;;5072495;28;19920;-74
2022/05/05 04:01:59;;;;;;;;;;;6.30;99.90;;;;;;5072296;28;19994;-74
2022/05/05 04:04:25;;;;;;;;;;;6.30;99.90;;;;;;5072106;28;19920;-73
2022/05/05 04:06:51;;;;;;;;;;;6.30;99.90;;;;;;5051818;28;20374;-73
2022/05/05 04:09:16;;;;;;;;;;;6.40;99.90;;;;;;5074162;28;19939;-75
2022/05/05 04:11:43;;;;;;;;;;;6.40;99.90;;;;;;5077646;28;19921;-75
2022/05/05 04:14:09;;;;;;;;;;;6.40;99.90;;;;;;5060986;28;19924;-78
2022/05/05 04:16:35;;;;;;;;;;;6.40;99.90;;;;;;5076674;28;19931;-75
2022/05/05 04:19:03;;;;;;;;;;;6.40;99.90;;;;;;5053659;28;19928;-78
2022/05/05 04:21:29;;;;;;;;;;;6.40;99.90;;;;;;5060869;28;19920;-76
2022/05/05 04:23:54;;;;;;;;;;;6.50;99.90;;;;;;5052048;28;20348;-75
2022/05/05 04:26:20;;;;;;;;;;;6.50;99.90;;;;;;5077493;28;19931;-76
2022/05/05 04:28:48;;;;;;;;;;;6.50;99.90;;;;;;5059367;28;20294;-76
2022/05/05 04:31:14;;;;;;;;;;;6.60;99.90;;;;;;5077147;28;20302;-76
2022/05/05 04:33:41;;;;;;;;;;;6.70;99.90;;;;;;5045251;28;19934;-76
2022/05/05 04:36:07;;;;;;;;;;;6.70;99.90;;;;;;5059244;28;19932;-76
2022/05/05 04:38:33;;;;;;;;;;;6.80;99.90;;;;;;5043912;28;20004;-75
2022/05/05 04:40:59;;;;;;;;;;;6.80;99.90;;;;;;5049299;28;19963;-75
2022/05/05 04:43:24;;;;;;;;;;;6.90;99.90;;;;;;5053198;28;20416;-76
2022/05/05 04:45:51;;;;;;;;;;;6.90;99.90;;;;;;5076958;28;19969;-76
2022/05/05 04:48:17;;;;;;;;;;;7.00;99.90;;;;;;5077711;28;19935;-75
2022/05/05 04:50:42;;;;;;;;;;;7.00;99.90;;;;;;5054936;28;20390;-76
2022/05/05 04:53:08;;;;;;;;;;;7.10;99.90;;;;;;5059965;28;19924;-78
2022/05/05 04:55:34;;;;;;;;;;;7.10;99.90;;;;;;5057690;28;19928;-76
2022/05/05 04:57:59;;;;;;;;;;;7.20;99.90;;;;;;5078990;28;19931;-75
2022/05/05 05:00:25;;;;;;;;;;;7.20;99.90;;;;;;5058939;28;20370;-76
2022/05/05 05:02:52;;;;;;;;;;;7.30;99.90;;;;;;5069774;28;19921;-76
2022/05/05 05:05:17;;;;;;;;;;;7.40;99.90;;;;;;5072141;28;19933;-75
2022/05/05 05:07:43;;;;;;;;;;;7.40;99.90;;;;;;5049245;28;20465;-80
2022/05/05 05:10:09;;;;;;;;;;;7.50;99.90;;;;;;5049836;28;20008;-76
2022/05/05 05:12:35;;;;;;;;;;;7.50;99.90;;;;;;5077610;28;19920;-76
2022/05/05 05:15:00;;;;;;;;;;;7.60;99.90;;;;;;5045480;28;19935;-78
2022/05/05 05:17:26;;;;;;;;;;;7.70;99.90;;;;;;5077130;28;19921;-75
2022/05/05 05:19:53;;;;;;;;;;;7.80;99.90;;;;;;5055572;28;19921;-76
2022/05/05 05:22:19;;;;;;;;;;;7.90;99.90;;;;;;5059641;28;19935;-77
2022/05/05 05:24:44;;;;;;;;;;;8.00;99.90;;;;;;5077085;28;19924;-75
2022/05/05 05:27:10;;;;;;;;;;;8.10;99.90;;;;;;5076893;28;19966;-76
2022/05/05 05:29:35;;;;;;;;;;;8.20;99.90;;;;;;5072632;28;20293;-76
2022/05/05 05:32:01;;;;;;;;;;;8.20;99.90;;;;;;5052359;28;19920;-76
2022/05/05 05:34:26;;;;;;;;;;;8.30;99.90;;;;;;5048123;28;19924;-76
2022/05/05 05:36:56;;;;;;;;;;;8.40;99.90;;;;;;5066833;28;19920;-76
2022/05/05 05:39:22;;;;;;;;;;;8.50;99.90;;;;;;5047550;28;19956;-76
2022/05/05 05:41:48;;;;;;;;;;;8.50;99.90;;;;;;5065936;28;19970;-79
2022/05/05 05:44:13;;;;;;;;;;;8.60;99.90;;;;;;5044686;28;20027;-79
2022/05/05 05:46:39;;;;;;;;;;;8.60;99.90;;;;;;5049506;28;19935;-75
2022/05/05 05:49:05;;;;;;;;;;;8.70;99.90;;;;;;5080808;28;19927;-76
2022/05/05 05:51:31;;;;;;;;;;;8.70;99.90;;;;;;5067293;28;19947;-76
2022/05/05 05:53:59;;;;;;;;;;;8.80;99.90;;;;;;5069332;28;19928;-78
2022/05/05 05:56:24;;;;;;;;;;;9.00;99.90;;;;;;5051759;28;19928;-79
2022/05/05 05:58:50;;;;;;;;;;;9.10;99.90;;;;;;5070066;28;20329;-77
2022/05/05 06:01:16;;;;;;;;;;;9.30;99.90;;;;;;5049289;28;19947;-76
2022/05/05 06:03:53;;;;;;;;;;;9.60;99.90;;;;;;5069893;28;19928;-78
2022/05/05 06:06:19;;;;;;;;;;;10.10;99.90;;;;;;5035044;28;19921;-80
2022/05/05 06:08:44;;;;;;;;;;;10.40;99.90;;;;;;5065728;28;19939;-79
2022/05/05 06:11:11;;;;;;;;;;;10.70;99.90;;;;;;5049221;28;19921;-79
2022/05/05 06:13:37;;;;;;;;;;;11.00;99.90;;;;;;5047888;28;21400;-77
2022/05/05 06:16:04;;;;;;;;;;;11.10;99.90;;;;;;5064525;28;20291;-76
2022/05/05 06:18:30;;;;;;;;;;;11.00;99.90;;;;;;5039577;28;20323;-80
2022/05/05 06:20:55;;;;;;;;;;;10.80;99.90;;;;;;5039800;28;19925;-77
2022/05/05 06:23:21;;;;;;;;;;;10.70;99.90;;;;;;5063571;28;19936;-78
2022/05/05 06:25:46;;;;;;;;;;;10.60;99.90;;;;;;5067824;28;19981;-80
2022/05/05 06:28:13;;;;;;;;;;;10.60;99.90;;;;;;5065702;28;19920;-76
2022/05/05 06:30:39;;;;;;;;;;;10.60;99.90;;;;;;5067849;28;19928;-76
2022/05/05 06:33:05;;;;;;;;;;;10.50;99.90;;;;;;5052702;28;19943;-82
2022/05/05 06:35:31;;;;;;;;;;;10.50;99.90;;;;;;5045490;28;19928;-76
2022/05/05 06:37:57;;;;;;;;;;;10.60;99.90;;;;;;5044604;28;19931;-77
2022/05/05 06:40:22;;;;;;;;;;;10.80;99.90;;;;;;5058646;28;19970;-78
2022/05/05 06:42:48;;;;;;;;;;;11.00;99.90;;;;;;5063127;28;20397;-76
2022/05/05 06:45:15;;;;;;;;;;;11.10;99.90;;;;;;5046110;28;19924;-77
2022/05/05 06:47:40;;;;;;;;;;;11.30;99.90;;;;;;5053499;28;19935;-76
2022/05/05 06:50:06;;;;;;;;;;;11.30;99.90;;;;;;5062352;28;19928;-76
2022/05/05 06:52:32;;;;;;;;;;;11.40;99.90;;;;;;5058437;28;19925;-79
2022/05/05 06:54:58;;;;;;;;;;;11.40;99.90;;;;;;5057621;28;20404;-78
2022/05/05 06:57:23;;;;;;;;;;;11.40;99.90;;;;;;5061529;28;19924;-78
2022/05/05 06:59:49;;;;;;;;;;;11.50;99.90;;;;;;5042877;28;19924;-76
2022/05/05 07:02:16;;;;;;;;;;;11.60;99.90;;;;;;5056328;28;20555;-78
2022/05/05 07:07:26;;;;;;;;;;;11.80;99.90;;;;;;5075280;28;19925;-79
2022/05/05 07:12:36;;;;;;;;;;;12.20;99.90;;;;;;5059656;28;19920;-78
2022/05/05 07:15:02;;;;;;;;;;;12.40;99.90;;;;;;5039322;28;20405;-80
2022/05/05 07:17:29;;;;;;;;;;;12.50;99.90;;;;;;5045481;28;19936;-77
2022/05/05 07:19:54;;;;;;;;;;;12.60;99.90;;;;;;5058898;28;19948;-76
2022/05/05 07:22:20;;;;;;;;;;;12.70;99.90;;;;;;5039525;28;20390;-76
2022/05/05 07:24:48;;;;;;;;;;;12.80;99.90;;;;;;5043477;28;19935;-76
2022/05/05 07:27:14;;;;;;;;;;;12.90;99.90;;;;;;5061409;28;19966;-76
2022/05/05 07:29:43;;;;;;;;;;;13.10;99.90;;;;;;5043500;28;19924;-76
2022/05/05 07:32:09;;;;;;;;;;;13.20;99.90;;;;;;5043509;28;20417;-77
2022/05/05 07:34:36;;;;;;;;;;;13.40;99.90;;;;;;5041962;28;20107;-80
2022/05/05 07:37:02;;;;;;;;;;;13.70;99.90;;;;;;5045709;28;20493;-80
2022/05/05 07:39:28;;;;;;;;;;;13.90;99.90;;;;;;5058385;28;19955;-77
2022/05/05 07:41:54;;;;;;;;;;;14.10;99.90;;;;;;5060086;28;20008;-77
2022/05/05 07:44:19;;;;;;;;;;;14.20;99.90;;;;;;5036373;28;20386;-78
2022/05/05 07:46:45;;;;;;;;;;;14.20;99.90;;;;;;5061359;28;19927;-76
2022/05/05 07:49:10;;;;;;;;;;;14.20;99.90;;;;;;5056710;28;19999;-77
2022/05/05 07:51:37;;;;;;;;;;;14.40;99.90;;;;;;5063338;28;19920;-76
2022/05/05 07:56:47;;;;;;;;;;;14.60;99.90;;;;;;5061023;28;20306;-77
2022/05/05 07:59:13;;;;;;;;;;;14.90;99.90;;;;;;5049795;28;19928;-76
2022/05/05 08:01:38;;;;;;;;;;;15.10;99.90;;;;;;5051415;28;20346;-77
2022/05/05 08:04:04;;;;;;;;;;;15.20;99.90;;;;;;5040874;28;19999;-79
2022/05/05 08:06:30;;;;;;;;;;;15.30;96.80;;;;;;5044709;28;19938;-81
2022/05/05 08:08:58;;;;;;;;;;;15.40;97.20;;;;;;5038551;28;19929;-76
2022/05/05 08:11:23;;;;;;;;;;;15.40;93.70;;;;;;5040859;28;20283;-76
2022/05/05 08:13:49;;;;;;;;;;;15.40;93.60;;;;;;5065028;28;19982;-76
2022/05/05 08:16:16;;;;;;;;;;;15.60;94.80;;;;;;5049466;28;19968;-80
2022/05/05 08:18:42;;;;;;;;;;;15.60;95.30;;;;;;5046993;28;19966;-77
2022/05/05 08:21:10;;;;;;;;;;;15.80;95.50;;;;;;5046090;28;20385;-76
2022/05/05 08:23:35;;;;;;;;;;;15.80;95.40;;;;;;5062258;28;20346;-79
2022/05/05 08:28:47;;;;;;;;;;;16.00;95.50;;;;;;5064185;28;20078;-78
2022/05/05 08:31:13;;;;;;;;;;;16.00;95.70;;;;;;5064258;28;20415;-77
2022/05/05 08:33:39;;;;;;;;;;;16.10;96.00;;;;;;5043401;28;19967;-79
2022/05/05 08:36:05;;;;;;;;;;;16.20;96.10;;;;;;5081299;28;20031;-77
2022/05/05 08:38:31;;;;;;;;;;;16.30;95.90;;;;;;5067983;28;19932;-79
2022/05/05 08:40:57;;;;;;;;;;;16.40;96.00;;;;;;5031132;28;19920;-77
2022/05/05 08:43:24;;;;;;;;;;;16.60;95.40;;;;;;5057851;28;19924;-77
2022/05/05 08:45:50;;;;;;;;;;;16.50;94.70;;;;;;5044274;28;19928;-77
2022/05/05 08:48:16;;;;;;;;;;;16.60;94.40;;;;;;5063255;28;19931;-79
2022/05/05 08:50:46;;;;;;;;;;;16.60;94.30;;;;;;5050749;28;20321;-76
2022/05/05 08:53:14;;;;;;;;;;;16.80;94.20;;;;;;5063460;28;19920;-78
2022/05/05 08:55:40;;;;;;;;;;;16.90;93.80;;;;;;5058326;28;19935;-80
2022/05/05 08:58:05;;;;;;;;;;;17.00;93.50;;;;;;5061953;28;19921;-78
2022/05/05 09:00:32;;;;;;;;;;;17.20;93.10;;;;;;5064379;28;20301;-77
2022/05/05 09:03:04;;;;;;;;;;;17.30;92.50;;;;;;5064263;28;19959;-77
2022/05/05 09:05:48;;;;;;;;;;;17.40;92.00;;;;;;5043683;28;20425;-80
2022/05/05 09:08:25;;;;;;;;;;;17.60;91.50;;;;;;5063321;28;20030;-78
2022/05/05 09:10:51;;;;;;;;;;;17.70;90.00;;;;;;5041347;28;19920;-77
2022/05/05 09:13:20;;;;;;;;;;;17.70;89.70;;;;;;5047443;28;19925;-77
2022/05/05 09:15:47;;;;;;;;;;;17.80;90.60;;;;;;5065206;28;19931;-77
2022/05/05 09:18:13;;;;;;;;;;;18.00;91.30;;;;;;5063041;28;19932;-78
2022/05/05 09:20:39;;;;;;;;;;;18.10;90.60;;;;;;5049331;28;19927;-76
2022/05/05 09:23:04;;;;;;;;;;;18.40;91.20;;;;;;5061527;28;20328;-79
2022/05/05 09:25:42;;;;;;;;;;;18.70;91.20;;;;;;5039438;28;19925;-77
2022/05/05 09:28:15;;;;;;;;;;;18.90;90.30;;;;;;5061242;28;19925;-77
2022/05/05 09:30:44;;;;;;;;;;;18.90;87.90;;;;;;5040561;28;19932;-81
2022/05/05 09:33:13;;;;;;;;;;;18.80;86.90;;;;;;5062215;28;19932;-77
2022/05/05 09:35:38;;;;;;;;;;;18.90;86.60;;;;;;5060569;28;19952;-78
2022/05/05 09:38:04;;;;;;;;;;;19.00;82.90;;;;;;5046601;28;21558;-76
2022/05/05 09:40:30;;;;;;;;;;;19.40;84.90;;;;;;5068483;28;20011;-80
2022/05/05 09:42:55;;;;;;;;;;;19.80;83.00;;;;;;5067396;28;19978;-77
2022/05/05 09:45:22;;;;;;;;;;;20.10;85.00;;;;;;5062971;28;19921;-78
2022/05/05 09:47:49;;;;;;;;;;;20.50;85.60;;;;;;5059634;28;20028;-77
2022/05/05 09:50:19;;;;;;;;;;;20.70;84.20;;;;;;5079702;28;20290;-77
2022/05/05 09:58:15;;;;;;;;;;;21.40;79.10;;;;;;5059850;28;19943;-78
2022/05/05 10:00:46;;;;;;;;;;;21.50;77.90;;;;;;5059331;28;20342;-77
2022/05/05 10:06:00;;;;;;;;;;;22.10;77.90;;;;;;5065398;28;19940;-77
2022/05/05 10:08:29;;;;;;;;;;;22.20;73.60;;;;;;5056010;28;19930;-78
2022/05/05 10:10:55;;;;;;;;;;;22.20;72.70;;;;;;5047837;28;19920;-77
2022/05/05 10:13:23;;;;;;;;;;;22.60;74.20;;;;;;5042435;28;19951;-80
2022/05/05 10:15:49;;;;;;;;;;;22.80;71.10;;;;;;5060530;28;19943;-77
2022/05/05 10:18:16;;;;;;;;;;;22.90;70.70;;;;;;5065038;28;19939;-81
2022/05/05 10:20:42;;;;;;;;;;;22.60;62.90;;;;;;5020208;28;19921;-79
2022/05/05 10:23:11;;;;;;;;;;;23.00;66.90;;;;;;5065029;28;20503;-80
2022/05/05 10:25:39;;;;;;;;;;;23.30;66.00;;;;;;5044149;28;19931;-76
2022/05/05 10:28:35;;;;;;;;;;;23.40;64.00;;;;;;5064439;28;19924;-78
2022/05/05 10:31:01;;;;;;;;;;;23.40;65.60;;;;;;5070003;28;19978;-77
2022/05/05 10:33:56;;;;;;;;;;;23.90;66.70;;;;;;5060313;28;20389;-77
2022/05/05 10:36:23;;;;;;;;;;;24.30;67.60;;;;;;5065115;28;19931;-78
2022/05/05 10:38:50;;;;;;;;;;;24.50;62.40;;;;;;5068282;28;19982;-80
2022/05/05 10:41:35;;;;;;;;;;;24.50;65.00;;;;;;5062695;28;19963;-77
2022/05/05 10:44:19;;;;;;;;;;;24.90;66.60;;;;;;5069578;28;20344;-77
2022/05/05 10:47:03;;;;;;;;;;;25.20;59.50;;;;;;5043514;28;19920;-77
2022/05/05 10:49:42;;;;;;;;;;;24.70;52.20;;;;;;5066936;28;19928;-80
2022/05/05 10:52:27;;;;;;;;;;;24.20;53.50;;;;;;5047501;28;19921;-79
2022/05/05 10:54:54;;;;;;;;;;;24.00;52.30;;;;;;5060360;28;19952;-76
2022/05/05 10:57:39;;;;;;;;;;;23.90;55.10;;;;;;5024758;28;19933;-77
2022/05/05 11:00:06;;;;;;;;;;;24.10;56.00;;;;;;5057339;28;19921;-77
2022/05/05 11:02:32;;;;;;;;;;;24.30;57.60;;;;;;5017867;28;20401;-79
2022/05/05 11:05:21;;;;;;;;;;;24.60;56.60;;;;;;5060797;28;19921;-77
2022/05/05 11:07:49;;;;;;;;;;;24.70;55.90;;;;;;5080269;28;20046;-78
2022/05/05 11:10:29;;;;;;;;;;;24.70;56.50;;;;;;5041590;28;19924;-77
2022/05/05 11:12:56;;;;;;;;;;;24.60;57.70;;;;;;5049001;28;19920;-80
2022/05/05 11:23:56;;;;;;;;;;;24.50;56.10;;;;;;5062864;28;20362;-78
2022/05/05 11:26:22;;;;;;;;;;;24.50;54.60;;;;;;5061273;28;19931;-79
2022/05/05 11:28:49;;;;;;;;;;;24.40;54.40;;;;;;5045876;28;19921;-77
2022/05/05 11:31:15;;;;;;;;;;;24.30;54.50;;;;;;5051102;28;19946;-77
2022/05/05 11:33:41;;;;;;;;;;;24.50;55.00;;;;;;5068887;28;20370;-79
2022/05/05 11:36:08;;;;;;;;;;;24.80;55.40;;;;;;5055203;28;19971;-78
2022/05/05 11:38:33;;;;;;;;;;;25.10;55.90;;;;;;5069037;28;19967;-77
2022/05/05 11:41:00;;;;;;;;;;;25.40;54.00;;;;;;5054482;28;20010;-78
2022/05/05 11:46:12;;;;;;;;;;;25.40;53.30;;;;;;5066226;28;19928;-84
2022/05/05 11:48:38;;;;;;;;;;;25.30;53.40;;;;;;5045283;28;19925;-76
2022/05/05 11:51:06;;;;;;;;;;;25.50;51.40;;;;;;5070545;28;19921;-80
2022/05/05 11:53:31;;;;;;;;;;;25.10;50.30;;;;;;5056343;28;19975;-76
2022/05/05 11:55:57;;;;;;;;;;;25.10;51.70;;;;;;5052710;28;19974;-77
2022/05/05 12:03:57;;;;;;;;;;;25.00;50.60;;;;;;5067861;28;19944;-79
2022/05/05 12:06:24;;;;;;;;;;;24.80;51.60;;;;;;5033047;28;19981;-80
2022/05/05 12:08:50;;;;;;;;;;;24.80;49.80;;;;;;5068338;28;19924;-78
2022/05/05 12:11:15;;;;;;;;;;;24.50;50.90;;;;;;5067234;28;20394;-77
2022/05/05 12:13:41;;;;;;;;;;;24.20;52.40;;;;;;5031548;28;19963;-79
2022/05/05 12:16:08;;;;;;;;;;;24.50;52.50;;;;;;5049189;28;19939;-80
2022/05/05 12:18:33;;;;;;;;;;;24.80;51.30;;;;;;5065642;28;19921;-79
2022/05/05 12:21:00;;;;;;;;;;;25.10;51.80;;;;;;5068683;28;19921;-78
2022/05/05 12:23:27;;;;;;;;;;;25.20;50.40;;;;;;5052464;28;19935;-78
2022/05/05 12:25:53;;;;;;;;;;;25.30;51.00;;;;;;5065168;28;19924;-81
2022/05/05 12:28:19;;;;;;;;;;;25.30;51.70;;;;;;5044759;28;19921;-78
2022/05/05 12:30:45;;;;;;;;;;;25.20;49.00;;;;;;5052693;28;20390;-79
2022/05/05 12:33:11;;;;;;;;;;;25.00;49.40;;;;;;5049162;28;19928;-79
2022/05/05 12:35:38;;;;;;;;;;;24.90;47.80;;;;;;5020032;28;20425;-80
2022/05/05 12:38:06;;;;;;;;;;;24.90;48.50;;;;;;5060826;28;19926;-79
2022/05/05 12:40:33;;;;;;;;;;;24.60;48.40;;;;;;5044933;28;20807;-78
2022/05/05 12:42:59;;;;;;;;;;;24.30;49.80;;;;;;5038678;28;19920;-79
2022/05/05 12:45:26;;;;;;;;;;;24.20;49.20;;;;;;5063930;28;20015;-78
2022/05/05 12:47:53;;;;;;;;;;;23.90;48.90;;;;;;5050798;28;20011;-79
2022/05/05 12:50:25;;;;;;;;;;;23.60;48.90;;;;;;5046752;28;19947;-78
2022/05/05 13:01:05;;;;;;;;;;;23.80;52.70;;;;;;5065856;28;19921;-79
2022/05/05 13:03:31;;;;;;;;;;;24.10;53.30;;;;;;5066853;28;19952;-80
2022/05/05 13:05:58;;;;;;;;;;;24.40;51.10;;;;;;5065846;28;20402;-78
2022/05/05 13:08:25;;;;;;;;;;;24.70;51.30;;;;;;5067411;28;19975;-79
2022/05/05 13:10:53;;;;;;;;;;;24.90;50.80;;;;;;5048773;28;19928;-79
2022/05/05 13:13:18;;;;;;;;;;;24.60;49.70;;;;;;5026430;28;20340;-80
2022/05/05 13:15:44;;;;;;;;;;;24.00;49.90;;;;;;5044762;28;19935;-76
2022/05/05 13:18:09;;;;;;;;;;;23.50;50.20;;;;;;5053632;28;19943;-76
2022/05/05 13:20:35;;;;;;;;;;;23.00;51.00;;;;;;5055359;28;19924;-77
2022/05/05 13:23:02;;;;;;;;;;;22.70;52.10;;;;;;5052361;28;19928;-81
2022/05/05 13:25:28;;;;;;;;;;;22.50;53.10;;;;;;5073162;28;19928;-75
2022/05/05 13:27:55;;;;;;;;;;;22.30;54.00;;;;;;5072570;28;19955;-78
2022/05/05 13:30:21;;;;;;;;;;;22.20;54.80;;;;;;5062842;28;19951;-80
2022/05/05 13:32:47;;;;;;;;;;;21.90;55.20;;;;;;5048855;28;19924;-81
2022/05/05 13:35:13;;;;;;;;;;;21.70;56.00;;;;;;5068271;28;19924;-77
2022/05/05 13:37:39;;;;;;;;;;;21.50;56.70;;;;;;5066560;28;19951;-77
2022/05/05 13:40:07;;;;;;;;;;;21.30;57.40;;;;;;5066357;28;19921;-76
2022/05/05 13:42:32;;;;;;;;;;;21.20;58.80;;;;;;5065841;28;19924;-78
2022/05/05 13:44:59;;;;;;;;;;;21.10;58.70;;;;;;5066711;28;19920;-80
2022/05/05 13:47:25;;;;;;;;;;;20.90;59.80;;;;;;5070006;28;19932;-77
2022/05/05 13:49:52;;;;;;;;;;;20.90;60.50;;;;;;5068395;28;21286;-77
2022/05/05 13:52:18;;;;;;;;;;;20.80;60.90;;;;;;5063788;28;19928;-81
2022/05/05 13:54:45;;;;;;;;;;;20.70;61.10;;;;;;5067796;28;19974;-79
2022/05/05 13:57:10;;;;;;;;;;;20.70;61.40;;;;;;5066914;28;20317;-78
2022/05/05 13:59:36;;;;;;;;;;;20.70;61.50;;;;;;5062221;28;19921;-78
2022/05/05 14:02:04;;;;;;;;;;;20.50;61.20;;;;;;5068974;28;20015;-79
2022/05/05 14:04:30;;;;;;;;;;;20.40;61.40;;;;;;5030182;28;19925;-77
2022/05/05 14:06:57;;;;;;;;;;;20.40;61.70;;;;;;5053900;28;19926;-77
2022/05/05 14:12:10;;;;;;;;;;;20.40;62.40;;;;;;5048606;28;20517;-76
2022/05/05 14:14:36;;;;;;;;;;;20.40;62.70;;;;;;5084107;28;19928;-76
2022/05/05 14:17:03;;;;;;;;;;;20.30;63.00;;;;;;5052189;28;19931;-83
2022/05/05 14:19:30;;;;;;;;;;;20.30;63.30;;;;;;5042209;28;19924;-76
2022/05/05 14:21:58;;;;;;;;;;;20.20;63.70;;;;;;5064449;28;20007;-77
2022/05/05 14:24:23;;;;;;;;;;;20.10;64.10;;;;;;5060925;28;19927;-77
2022/05/05 14:26:49;;;;;;;;;;;20.00;63.60;;;;;;5048744;28;20420;-77
2022/05/05 14:29:17;;;;;;;;;;;19.90;64.00;;;;;;5049404;28;19929;-82
2022/05/05 14:31:42;;;;;;;;;;;19.80;64.40;;;;;;5068254;28;19932;-76
2022/05/05 14:34:09;;;;;;;;;;;19.70;64.80;;;;;;5068961;28;20041;-77
2022/05/05 14:36:36;;;;;;;;;;;19.80;65.20;;;;;;5069481;28;20023;-76
2022/05/05 14:39:02;;;;;;;;;;;19.70;65.40;;;;;;5067619;28;19929;-80
2022/05/05 14:41:28;;;;;;;;;;;19.60;65.70;;;;;;5050280;28;20370;-78
2022/05/05 14:43:53;;;;;;;;;;;19.60;65.80;;;;;;5061815;28;19927;-76
2022/05/05 14:46:19;;;;;;;;;;;19.60;65.50;;;;;;5047866;28;19986;-77
2022/05/05 14:48:44;;;;;;;;;;;19.50;64.80;;;;;;5046359;28;19966;-80
2022/05/05 14:51:10;;;;;;;;;;;19.40;65.20;;;;;;5062917;28;19980;-77
2022/05/05 14:53:38;;;;;;;;;;;19.40;65.70;;;;;;5062049;28;19921;-76
2022/05/05 14:56:03;;;;;;;;;;;19.30;65.50;;;;;;5047107;28;19924;-76
2022/05/05 14:58:29;;;;;;;;;;;19.30;65.70;;;;;;5049808;28;19921;-77
2022/05/05 15:00:55;;;;;;;;;;;19.30;66.20;;;;;;5065360;28;19925;-78
2022/05/05 15:03:20;;;;;;;;;;;19.20;66.80;;;;;;5045355;28;20309;-77
2022/05/05 15:05:46;;;;;;;;;;;19.20;67.80;;;;;;5049678;28;19963;-77
2022/05/05 15:08:11;;;;;;;;;;;19.10;68.30;;;;;;5070773;28;19920;-76
2022/05/05 15:10:39;;;;;;;;;;;19.10;68.40;;;;;;5074711;28;20006;-78
2022/05/05 15:13:05;;;;;;;;;;;19.10;68.20;;;;;;5036316;28;20283;-77
2022/05/05 15:15:31;;;;;;;;;;;19.20;68.40;;;;;;5078810;28;19951;-77
2022/05/05 15:17:57;;;;;;;;;;;19.20;68.30;;;;;;5069459;28;19928;-78
2022/05/05 15:20:23;;;;;;;;;;;19.30;68.40;;;;;;5066474;28;19920;-81